Time;durP1;ratioP1;P1;durP2;ratioP2;P2;SDS_P1;SDS_P2;PMS_P1;PMS_P2;Temp;Humidity;BMP_temperature;BMP_pressure;BME280_temperature;BME280_humidity;BME280_pressure;Samples;Min_cycle;Max_cycle;Signal;HPM_P1;HPM_P2
2021/03/09 00:02:15;;;;;;;50.67;27.37;;;;;;;;;;4323547;33;20358;-68
2021/03/09 00:04:42;;;;;;;55.27;29.80;;;;;;;;;;4325638;33;20558;-70
2021/03/09 00:07:08;;;;;;;71.93;33.73;;;;;;;;;;4323115;33;20231;-70
2021/03/09 00:09:33;;;;;;;63.33;35.27;;;;;;;;;;4326680;33;20310;-65
2021/03/09 00:11:59;;;;;;;63.77;34.53;;;;;;;;;;4324256;33;20436;-66
2021/03/09 00:14:24;;;;;;;62.97;33.70;;;;;;;;;;4348441;32;20534;-64
2021/03/09 00:16:50;;;;;;;68.77;37.30;;;;;;;;;;4320624;33;20379;-65
2021/03/09 00:19:15;;;;;;;62.47;36.33;;;;;;;;;;4326507;33;20203;-54
2021/03/09 00:21:41;;;;;;;74.47;37.20;;;;;;;;;;4327580;33;20619;-52
2021/03/09 00:24:07;;;;;;;74.80;37.33;;;;;;;;;;4322933;33;20291;-54
2021/03/09 00:26:32;;;;;;;65.77;37.20;;;;;;;;;;4323932;33;20227;-54
2021/03/09 00:28:58;;;;;;;67.10;35.43;;;;;;;;;;4326144;33;20682;-54
2021/03/09 00:31:23;;;;;;;74.73;35.43;;;;;;;;;;4351695;32;20345;-54
2021/03/09 00:33:48;;;;;;;53.10;31.37;;;;;;;;;;4322876;33;20241;-54
2021/03/09 00:36:14;;;;;;;52.67;28.83;;;;;;;;;;4326331;33;20366;-55
2021/03/09 00:38:40;;;;;;;59.33;30.17;;;;;;;;;;4324222;33;20703;-53
2021/03/09 00:41:05;;;;;;;60.23;31.40;;;;;;;;;;4352078;32;20667;-53
2021/03/09 00:43:31;;;;;;;53.40;31.53;;;;;;;;;;4326275;33;20266;-52
2021/03/09 00:45:57;;;;;;;45.40;26.23;;;;;;;;;;4326538;33;20227;-53
2021/03/09 00:48:23;;;;;;;47.77;26.80;;;;;;;;;;4327488;33;20320;-53
2021/03/09 00:50:48;;;;;;;52.97;29.77;;;;;;;;;;4328646;33;20756;-53
2021/03/09 00:53:14;;;;;;;62.83;33.67;;;;;;;;;;4325281;33;20358;-53
2021/03/09 00:55:39;;;;;;;69.13;38.30;;;;;;;;;;4321073;33;20247;-53
2021/03/09 00:58:05;;;;;;;69.77;42.03;;;;;;;;;;4324479;33;20235;-53
2021/03/09 01:00:31;;;;;;;81.17;45.27;;;;;;;;;;4334958;33;20305;-53
2021/03/09 01:02:57;;;;;;;88.73;48.23;;;;;;;;;;4328476;33;20282;-53
2021/03/09 01:05:23;;;;;;;106.07;61.40;;;;;;;;;;4324269;33;20273;-53
2021/03/09 01:07:49;;;;;;;123.27;74.13;;;;;;;;;;4326173;33;20212;-53
2021/03/09 01:10:17;;;;;;;114.77;68.43;;;;;;;;;;4347524;32;20878;-53
2021/03/09 01:12:42;;;;;;;115.37;72.60;;;;;;;;;;4350519;32;20304;-53
2021/03/09 01:15:08;;;;;;;112.30;71.73;;;;;;;;;;4347048;32;20699;-53
2021/03/09 01:17:34;;;;;;;87.93;55.93;;;;;;;;;;4327760;33;20313;-54
2021/03/09 01:20:00;;;;;;;82.63;48.23;;;;;;;;;;4331588;33;20269;-53
2021/03/09 01:22:25;;;;;;;80.20;48.07;;;;;;;;;;4346023;32;20278;-53
2021/03/09 01:24:51;;;;;;;76.47;45.07;;;;;;;;;;4321926;33;20358;-53
2021/03/09 01:27:17;;;;;;;64.30;41.70;;;;;;;;;;4327876;33;20377;-54
2021/03/09 01:29:42;;;;;;;75.30;43.03;;;;;;;;;;4322073;33;20248;-53
2021/03/09 01:32:08;;;;;;;64.70;40.90;;;;;;;;;;4326823;33;20733;-53
2021/03/09 01:34:34;;;;;;;69.80;41.50;;;;;;;;;;4322888;33;20314;-53
2021/03/09 01:36:59;;;;;;;77.57;47.17;;;;;;;;;;4326461;33;20365;-54
2021/03/09 01:39:25;;;;;;;72.83;39.73;;;;;;;;;;4324559;33;20735;-53
2021/03/09 01:41:51;;;;;;;69.53;41.20;;;;;;;;;;4324745;33;20368;-53
2021/03/09 01:44:16;;;;;;;74.13;42.00;;;;;;;;;;4324412;33;20692;-52
2021/03/09 01:46:43;;;;;;;94.73;52.43;;;;;;;;;;4320992;33;20739;-52
2021/03/09 01:49:11;;;;;;;108.17;64.40;;;;;;;;;;4324608;33;20218;-52
2021/03/09 01:51:37;;;;;;;231.20;122.40;;;;;;;;;;4322991;33;20249;-52
2021/03/09 01:54:02;;;;;;;150.67;93.53;;;;;;;;;;4326303;33;20207;-52
2021/03/09 01:56:28;;;;;;;100.53;70.93;;;;;;;;;;4320391;33;20290;-52
2021/03/09 01:58:54;;;;;;;63.83;40.27;;;;;;;;;;4324416;33;20317;-53
2021/03/09 02:01:20;;;;;;;85.70;44.17;;;;;;;;;;4319590;33;20215;-53
2021/03/09 02:03:45;;;;;;;70.83;39.67;;;;;;;;;;4326045;33;20234;-53
2021/03/09 02:06:15;;;;;;;61.93;33.37;;;;;;;;;;4321682;33;20282;-52
2021/03/09 02:08:42;;;;;;;81.00;40.97;;;;;;;;;;4324313;33;20325;-52
2021/03/09 02:11:28;;;;;;;85.27;44.80;;;;;;;;;;4321302;33;20673;-52
2021/03/09 02:14:36;;;;;;;91.00;45.33;;;;;;;;;;4324732;33;20331;-52
2021/03/09 02:17:08;;;;;;;85.67;41.97;;;;;;;;;;4277924;33;20315;-52
2021/03/09 02:20:07;;;;;;;90.67;44.80;;;;;;;;;;4267481;33;20295;-52
2021/03/09 02:23:03;;;;;;;137.30;63.63;;;;;;;;;;4312285;33;20340;-53
2021/03/09 02:25:31;;;;;;;180.40;74.20;;;;;;;;;;4321551;33;20704;-54
2021/03/09 02:28:25;;;;;;;149.27;63.97;;;;;;;;;;4319663;33;20215;-53
2021/03/09 02:30:53;;;;;;;150.93;65.70;;;;;;;;;;4325969;33;20711;-53
2021/03/09 02:33:28;;;;;;;141.97;63.33;;;;;;;;;;4319663;33;20254;-53
2021/03/09 02:36:00;;;;;;;89.97;47.77;;;;;;;;;;4319395;33;20779;-53
2021/03/09 02:38:29;;;;;;;103.43;50.10;;;;;;;;;;4343541;32;20250;-53
2021/03/09 02:40:58;;;;;;;84.33;47.83;;;;;;;;;;4337706;32;20628;-52
2021/03/09 02:43:25;;;;;;;74.00;40.13;;;;;;;;;;4320140;33;20389;-53
2021/03/09 02:45:52;;;;;;;94.30;53.40;;;;;;;;;;4323826;33;20736;-52
2021/03/09 02:48:23;;;;;;;88.47;46.03;;;;;;;;;;4321415;33;20270;-52
2021/03/09 02:50:52;;;;;;;78.93;45.17;;;;;;;;;;4326196;33;20654;-53
2021/03/09 02:53:18;;;;;;;79.97;48.10;;;;;;;;;;4342652;32;20306;-52
2021/03/09 02:55:46;;;;;;;89.27;48.57;;;;;;;;;;4324970;33;20767;-52
2021/03/09 02:58:18;;;;;;;77.40;44.17;;;;;;;;;;4321911;33;20269;-52
2021/03/09 03:00:44;;;;;;;87.43;49.50;;;;;;;;;;4324740;33;20713;-52
2021/03/09 03:03:12;;;;;;;128.47;56.17;;;;;;;;;;4321754;33;20215;-52
2021/03/09 03:05:39;;;;;;;100.60;51.73;;;;;;;;;;4324413;33;20255;-53
2021/03/09 03:08:08;;;;;;;91.43;49.80;;;;;;;;;;4323463;33;20222;-53
2021/03/09 03:10:36;;;;;;;89.83;46.97;;;;;;;;;;4327205;33;20278;-52
2021/03/09 03:13:12;;;;;;;82.10;44.93;;;;;;;;;;4324730;33;20231;-52
2021/03/09 03:15:39;;;;;;;84.53;44.43;;;;;;;;;;4325765;33;20266;-52
2021/03/09 03:18:09;;;;;;;79.00;43.17;;;;;;;;;;4323844;33;20267;-53
2021/03/09 03:20:35;;;;;;;80.73;44.83;;;;;;;;;;4326760;33;20278;-52
2021/03/09 03:23:02;;;;;;;80.20;45.07;;;;;;;;;;4324921;33;20309;-53
2021/03/09 03:25:28;;;;;;;73.93;44.13;;;;;;;;;;4323372;33;20251;-52
2021/03/09 03:27:55;;;;;;;77.40;41.27;;;;;;;;;;4324593;33;20822;-53
2021/03/09 03:30:21;;;;;;;63.07;34.87;;;;;;;;;;4322585;33;20239;-53
2021/03/09 03:32:48;;;;;;;57.77;34.03;;;;;;;;;;4321105;33;20207;-54
2021/03/09 03:35:15;;;;;;;56.63;32.97;;;;;;;;;;4323353;33;20689;-54
2021/03/09 03:37:41;;;;;;;65.63;32.33;;;;;;;;;;4323837;33;20211;-53
2021/03/09 03:40:18;;;;;;;57.43;31.70;;;;;;;;;;4322198;33;20253;-53
2021/03/09 03:42:45;;;;;;;63.63;34.17;;;;;;;;;;4325116;33;20358;-53
2021/03/09 03:45:13;;;;;;;38.97;21.17;;;;;;;;;;4317613;33;20283;-52
2021/03/09 03:47:39;;;;;;;40.07;23.30;;;;;;;;;;4325923;33;20381;-52
2021/03/09 03:50:06;;;;;;;34.20;21.10;;;;;;;;;;4322828;33;20372;-52
2021/03/09 03:52:55;;;;;;;35.07;21.00;;;;;;;;;;4320790;33;20219;-52
2021/03/09 03:55:38;;;;;;;36.57;20.27;;;;;;;;;;4289213;33;20652;-52
2021/03/09 03:58:22;;;;;;;34.87;20.30;;;;;;;;;;4326991;33;20404;-52
2021/03/09 04:00:50;;;;;;;30.40;18.37;;;;;;;;;;4320648;33;20286;-52
2021/03/09 04:03:16;;;;;;;33.40;19.27;;;;;;;;;;4354474;32;20321;-52
2021/03/09 04:05:44;;;;;;;32.43;21.03;;;;;;;;;;4325333;33;20305;-53
2021/03/09 04:08:11;;;;;;;36.03;22.97;;;;;;;;;;4325682;33;20376;-53
2021/03/09 04:10:36;;;;;;;43.23;24.50;;;;;;;;;;4314788;33;20261;-53
2021/03/09 04:13:03;;;;;;;43.27;22.90;;;;;;;;;;4326660;33;20252;-53
2021/03/09 04:15:30;;;;;;;43.53;23.47;;;;;;;;;;4324545;33;20389;-53
2021/03/09 04:17:56;;;;;;;57.03;25.83;;;;;;;;;;4326552;33;20342;-53
2021/03/09 04:20:23;;;;;;;59.47;29.67;;;;;;;;;;4322153;33;20283;-52
2021/03/09 04:22:50;;;;;;;54.67;28.93;;;;;;;;;;4325389;33;20199;-53
2021/03/09 04:25:17;;;;;;;55.73;28.50;;;;;;;;;;4323108;33;20223;-53
2021/03/09 04:27:44;;;;;;;53.60;30.27;;;;;;;;;;4327656;33;22322;-53
2021/03/09 04:30:12;;;;;;;69.27;35.20;;;;;;;;;;4320496;33;20630;-53
2021/03/09 04:32:38;;;;;;;77.63;38.73;;;;;;;;;;4328130;33;20215;-53
2021/03/09 04:35:04;;;;;;;61.10;35.93;;;;;;;;;;4320106;33;20385;-53
2021/03/09 04:37:31;;;;;;;82.70;43.57;;;;;;;;;;4330601;33;20554;-52
2021/03/09 04:39:57;;;;;;;65.13;39.80;;;;;;;;;;4320167;33;20286;-53
2021/03/09 04:42:23;;;;;;;73.73;41.27;;;;;;;;;;4331693;33;20235;-53
2021/03/09 04:44:49;;;;;;;98.17;55.50;;;;;;;;;;4330338;33;20668;-53
2021/03/09 04:47:15;;;;;;;99.17;52.07;;;;;;;;;;4323468;33;20450;-54
2021/03/09 04:49:41;;;;;;;90.23;51.37;;;;;;;;;;4320964;33;20664;-53
2021/03/09 04:52:06;;;;;;;84.93;44.63;;;;;;;;;;4325789;33;20348;-54
2021/03/09 04:54:34;;;;;;;84.23;47.63;;;;;;;;;;4321299;33;20216;-55
2021/03/09 04:56:59;;;;;;;116.53;60.70;;;;;;;;;;4322005;33;20297;-53
2021/03/09 04:59:25;;;;;;;104.90;57.87;;;;;;;;;;4324268;33;20314;-54
2021/03/09 05:01:50;;;;;;;81.67;48.90;;;;;;;;;;4324735;33;20317;-52
2021/03/09 05:04:16;;;;;;;88.50;44.63;;;;;;;;;;4321259;33;20294;-53
2021/03/09 05:06:41;;;;;;;70.80;38.70;;;;;;;;;;4319934;33;20247;-53
2021/03/09 05:09:07;;;;;;;62.13;33.23;;;;;;;;;;4323188;33;20294;-53
2021/03/09 05:11:33;;;;;;;62.03;31.40;;;;;;;;;;4346547;32;20227;-53
2021/03/09 05:13:58;;;;;;;57.67;32.37;;;;;;;;;;4322866;33;20254;-53
2021/03/09 05:16:25;;;;;;;78.07;42.00;;;;;;;;;;4317282;33;20352;-53
2021/03/09 05:18:51;;;;;;;57.30;33.80;;;;;;;;;;4323202;33;20602;-54
2021/03/09 05:21:16;;;;;;;51.80;28.97;;;;;;;;;;4343743;32;20626;-53
2021/03/09 05:23:43;;;;;;;52.47;32.53;;;;;;;;;;4318706;33;20204;-52
2021/03/09 05:26:08;;;;;;;57.13;32.43;;;;;;;;;;4322007;33;20294;-53
2021/03/09 05:28:34;;;;;;;63.97;34.53;;;;;;;;;;4321856;33;20352;-51
2021/03/09 05:31:01;;;;;;;68.97;37.87;;;;;;;;;;4325223;33;20429;-52
2021/03/09 05:33:27;;;;;;;70.40;37.63;;;;;;;;;;4344947;32;20295;-52
2021/03/09 05:35:52;;;;;;;68.60;37.73;;;;;;;;;;4321049;33;20596;-52
2021/03/09 05:38:18;;;;;;;79.10;40.40;;;;;;;;;;4320072;33;20686;-52
2021/03/09 05:40:44;;;;;;;73.10;39.47;;;;;;;;;;4324952;33;21053;-52
2021/03/09 05:43:11;;;;;;;74.70;42.00;;;;;;;;;;4343731;32;20297;-52
2021/03/09 05:45:36;;;;;;;84.43;44.93;;;;;;;;;;4320716;33;20352;-53
2021/03/09 05:48:03;;;;;;;111.30;54.30;;;;;;;;;;4321962;33;20211;-52
2021/03/09 05:50:29;;;;;;;102.70;55.43;;;;;;;;;;4343482;32;20365;-53
2021/03/09 05:52:55;;;;;;;124.73;62.90;;;;;;;;;;4324700;33;20869;-52
2021/03/09 05:55:23;;;;;;;164.27;75.77;;;;;;;;;;4316201;33;20231;-52
2021/03/09 05:57:49;;;;;;;175.07;85.77;;;;;;;;;;4322739;33;20309;-52
2021/03/09 06:00:15;;;;;;;176.87;90.47;;;;;;;;;;4322093;33;20252;-52
2021/03/09 06:02:41;;;;;;;150.80;73.67;;;;;;;;;;4326217;33;20340;-51
2021/03/09 06:05:09;;;;;;;132.60;68.23;;;;;;;;;;4318847;33;20231;-52
2021/03/09 06:07:35;;;;;;;136.23;70.63;;;;;;;;;;4322179;33;20250;-51
2021/03/09 06:10:02;;;;;;;126.97;71.60;;;;;;;;;;4325416;33;20239;-53
2021/03/09 06:12:28;;;;;;;137.93;72.80;;;;;;;;;;4323168;33;20204;-52
2021/03/09 06:15:00;;;;;;;143.60;79.13;;;;;;;;;;4318571;33;20265;-52
2021/03/09 06:17:27;;;;;;;158.53;91.10;;;;;;;;;;4321617;33;20275;-53
2021/03/09 06:19:53;;;;;;;184.60;91.10;;;;;;;;;;4331585;33;20334;-53
2021/03/09 06:22:20;;;;;;;173.97;91.97;;;;;;;;;;4324894;33;20282;-53
2021/03/09 06:24:47;;;;;;;143.37;84.17;;;;;;;;;;4320965;33;20246;-52
2021/03/09 06:27:22;;;;;;;145.60;79.67;;;;;;;;;;4320259;33;20208;-53
2021/03/09 06:29:48;;;;;;;142.27;76.53;;;;;;;;;;4324881;33;20385;-53
2021/03/09 06:32:14;;;;;;;135.43;77.93;;;;;;;;;;4321555;33;20425;-54
2021/03/09 06:34:39;;;;;;;182.20;103.03;;;;;;;;;;4341054;32;20239;-53
2021/03/09 06:37:11;;;;;;;129.30;72.33;;;;;;;;;;4324715;33;20748;-53
2021/03/09 06:39:56;;;;;;;139.30;78.67;;;;;;;;;;4321591;33;20756;-53
2021/03/09 06:42:31;;;;;;;124.03;68.83;;;;;;;;;;4348756;32;20231;-53
2021/03/09 06:45:11;;;;;;;130.00;72.07;;;;;;;;;;4316230;33;20269;-53
2021/03/09 06:47:48;;;;;;;113.33;71.00;;;;;;;;;;4328777;33;20247;-53
2021/03/09 06:50:18;;;;;;;122.03;70.13;;;;;;;;;;4322285;33;20277;-52
2021/03/09 06:52:56;;;;;;;139.77;73.00;;;;;;;;;;4324094;33;21752;-51
2021/03/09 06:55:28;;;;;;;131.97;71.80;;;;;;;;;;4316010;33;20238;-52
2021/03/09 06:58:14;;;;;;;117.67;70.33;;;;;;;;;;4322428;33;20258;-52
2021/03/09 07:00:40;;;;;;;113.50;64.70;;;;;;;;;;4324701;33;20239;-52
2021/03/09 07:03:36;;;;;;;122.07;68.43;;;;;;;;;;4323542;33;20571;-52
2021/03/09 07:06:02;;;;;;;120.17;66.90;;;;;;;;;;4316450;33;20325;-53
2021/03/09 07:08:27;;;;;;;129.87;68.93;;;;;;;;;;4322522;33;20544;-54
2021/03/09 07:10:54;;;;;;;103.10;64.97;;;;;;;;;;4321621;33;20686;-53
2021/03/09 07:13:23;;;;;;;101.63;61.93;;;;;;;;;;4320234;33;20269;-53
2021/03/09 07:15:50;;;;;;;113.97;67.70;;;;;;;;;;4318386;33;20306;-54
2021/03/09 07:18:19;;;;;;;125.03;71.67;;;;;;;;;;4322461;33;20259;-52
2021/03/09 07:20:46;;;;;;;136.97;77.77;;;;;;;;;;4325293;33;20235;-53
2021/03/09 07:23:17;;;;;;;143.17;83.33;;;;;;;;;;4322746;33;20263;-53
2021/03/09 07:25:42;;;;;;;130.40;78.97;;;;;;;;;;4320133;33;20665;-52
2021/03/09 07:28:13;;;;;;;142.73;79.07;;;;;;;;;;4321942;33;20275;-51
2021/03/09 07:30:42;;;;;;;155.83;84.13;;;;;;;;;;4329745;33;20239;-52
2021/03/09 07:33:08;;;;;;;140.03;78.93;;;;;;;;;;4321244;33;20299;-52
2021/03/09 07:35:34;;;;;;;169.27;93.37;;;;;;;;;;4321820;33;20673;-52
2021/03/09 07:37:59;;;;;;;199.27;110.27;;;;;;;;;;4326437;33;20286;-52
2021/03/09 07:40:28;;;;;;;181.17;101.03;;;;;;;;;;4350604;32;20242;-52
2021/03/09 07:42:55;;;;;;;157.97;92.40;;;;;;;;;;4328644;33;20229;-52
2021/03/09 07:45:25;;;;;;;170.23;95.20;;;;;;;;;;4357169;32;20770;-53
2021/03/09 07:48:12;;;;;;;154.70;91.40;;;;;;;;;;4327124;33;20520;-53
2021/03/09 07:50:41;;;;;;;155.83;87.10;;;;;;;;;;4318139;33;20397;-61
2021/03/09 07:53:11;;;;;;;183.50;91.53;;;;;;;;;;4325142;33;20220;-62
2021/03/09 07:55:38;;;;;;;159.73;86.43;;;;;;;;;;4318025;33;20583;-61
2021/03/09 07:58:12;;;;;;;148.17;78.73;;;;;;;;;;4325739;33;20818;-61
2021/03/09 08:01:08;;;;;;;146.40;84.90;;;;;;;;;;4326210;33;20261;-61
2021/03/09 08:03:36;;;;;;;133.13;76.67;;;;;;;;;;4319975;33;20302;-62
2021/03/09 08:06:05;;;;;;;129.60;66.43;;;;;;;;;;4327732;33;20851;-61
2021/03/09 08:08:43;;;;;;;109.50;60.43;;;;;;;;;;4324976;33;20331;-60
2021/03/09 08:11:26;;;;;;;105.50;58.33;;;;;;;;;;4327590;33;20336;-62
2021/03/09 08:14:04;;;;;;;119.23;62.33;;;;;;;;;;4326921;33;20337;-60
2021/03/09 08:16:29;;;;;;;121.17;66.17;;;;;;;;;;4327524;33;21928;-61
2021/03/09 08:18:57;;;;;;;105.47;56.47;;;;;;;;;;4325327;33;20364;-60
2021/03/09 08:21:38;;;;;;;126.37;60.33;;;;;;;;;;4327084;33;20219;-61
2021/03/09 08:24:04;;;;;;;95.27;54.40;;;;;;;;;;4328342;33;20375;-61
2021/03/09 08:26:30;;;;;;;83.50;48.43;;;;;;;;;;4327910;33;20664;-61
2021/03/09 08:28:56;;;;;;;85.70;52.40;;;;;;;;;;4324496;33;20274;-61
2021/03/09 08:31:21;;;;;;;53.13;31.17;;;;;;;;;;4328304;33;20704;-61
2021/03/09 08:34:12;;;;;;;60.97;30.93;;;;;;;;;;4324783;33;20211;-61
2021/03/09 08:36:38;;;;;;;55.10;30.80;;;;;;;;;;4322661;33;20302;-60
2021/03/09 08:39:11;;;;;;;177.60;102.67;;;;;;;;;;4324467;33;20309;-59
2021/03/09 08:44:17;;;;;;;368.70;181.57;;;;;;;;;;4324601;33;20548;-60
2021/03/09 08:47:10;;;;;;;85.93;53.07;;;;;;;;;;4325726;33;20284;-61
2021/03/09 08:52:11;;;;;;;118.30;64.00;;;;;;;;;;4328265;33;20298;-61
2021/03/09 08:54:47;;;;;;;134.00;70.97;;;;;;;;;;4325813;33;20206;-61
2021/03/09 08:57:33;;;;;;;121.67;64.93;;;;;;;;;;4326496;33;20246;-64
2021/03/09 09:00:08;;;;;;;104.37;55.83;;;;;;;;;;4322003;33;20328;-60
2021/03/09 09:02:40;;;;;;;96.03;52.03;;;;;;;;;;4323497;33;20334;-60
2021/03/09 09:05:07;;;;;;;108.07;58.83;;;;;;;;;;4320927;33;20317;-60
2021/03/09 09:07:40;;;;;;;79.67;48.03;;;;;;;;;;4325847;33;20211;-60
2021/03/09 09:10:09;;;;;;;94.70;50.73;;;;;;;;;;4322824;33;20247;-60
2021/03/09 09:12:37;;;;;;;120.57;57.80;;;;;;;;;;4350315;32;20333;-60
2021/03/09 09:15:25;;;;;;;104.43;56.13;;;;;;;;;;4345228;32;20755;-62
2021/03/09 09:17:54;;;;;;;79.30;47.33;;;;;;;;;;4323137;33;20266;-62
2021/03/09 09:20:31;;;;;;;78.57;42.17;;;;;;;;;;4323400;33;20301;-61
2021/03/09 09:23:07;;;;;;;72.10;42.30;;;;;;;;;;4323167;33;20629;-63
2021/03/09 09:25:37;;;;;;;76.83;37.47;;;;;;;;;;4324710;33;20305;-61
2021/03/09 09:28:03;;;;;;;67.83;40.47;;;;;;;;;;4323924;33;20265;-60
2021/03/09 09:30:40;;;;;;;70.00;35.67;;;;;;;;;;4325896;33;20246;-60
2021/03/09 09:33:08;;;;;;;71.37;38.43;;;;;;;;;;4324476;33;20562;-60
2021/03/09 09:35:33;;;;;;;62.07;34.50;;;;;;;;;;4345247;32;20269;-60
2021/03/09 09:38:04;;;;;;;58.73;34.43;;;;;;;;;;4324319;33;20218;-60
2021/03/09 09:40:35;;;;;;;67.23;40.83;;;;;;;;;;4325625;33;20239;-60
2021/03/09 09:43:22;;;;;;;77.10;41.27;;;;;;;;;;4334937;33;20262;-59
2021/03/09 09:45:53;;;;;;;70.47;43.50;;;;;;;;;;4325845;33;20228;-60
2021/03/09 09:48:28;;;;;;;68.57;41.60;;;;;;;;;;4326354;33;20813;-60
2021/03/09 09:50:59;;;;;;;89.60;44.20;;;;;;;;;;4322421;32;20275;-60
2021/03/09 09:53:39;;;;;;;83.23;45.10;;;;;;;;;;4318580;33;20274;-53
2021/03/09 09:56:20;;;;;;;87.20;44.20;;;;;;;;;;4319482;33;20366;-52
2021/03/09 09:58:50;;;;;;;84.17;41.17;;;;;;;;;;4321916;33;20341;-53
2021/03/09 10:01:22;;;;;;;59.43;34.70;;;;;;;;;;4324537;33;20227;-52
2021/03/09 10:03:58;;;;;;;58.87;33.90;;;;;;;;;;4324655;33;20287;-53
2021/03/09 10:06:25;;;;;;;53.30;29.50;;;;;;;;;;4326477;32;20258;-53
2021/03/09 10:08:51;;;;;;;122.70;53.70;;;;;;;;;;4324180;33;20302;-51
2021/03/09 10:11:18;;;;;;;135.73;54.93;;;;;;;;;;4325815;33;20290;-52
2021/03/09 10:13:43;;;;;;;443.60;169.33;;;;;;;;;;4323236;33;20282;-51
2021/03/09 10:16:09;;;;;;;84.53;42.57;;;;;;;;;;4317933;33;20291;-52
2021/03/09 10:18:36;;;;;;;50.43;28.40;;;;;;;;;;4320693;33;20219;-52
2021/03/09 10:21:08;;;;;;;41.63;24.90;;;;;;;;;;4326101;33;20360;-52
2021/03/09 10:23:54;;;;;;;24.10;17.27;;;;;;;;;;4320622;33;20739;-52
2021/03/09 10:26:31;;;;;;;38.43;21.07;;;;;;;;;;4324969;33;20649;-52
2021/03/09 10:29:16;;;;;;;39.30;24.60;;;;;;;;;;4320524;33;20248;-52
2021/03/09 10:31:57;;;;;;;56.53;28.63;;;;;;;;;;4326673;33;20211;-52
2021/03/09 10:34:37;;;;;;;33.63;22.27;;;;;;;;;;4321858;33;20708;-51
2021/03/09 10:37:04;;;;;;;54.83;22.73;;;;;;;;;;4322960;33;20274;-52
2021/03/09 10:39:32;;;;;;;49.90;28.03;;;;;;;;;;4322726;33;20203;-53
2021/03/09 10:42:18;;;;;;;44.43;26.93;;;;;;;;;;4320884;33;20227;-53
2021/03/09 10:44:43;;;;;;;43.13;27.10;;;;;;;;;;4322509;33;20274;-53
2021/03/09 10:47:11;;;;;;;41.70;27.23;;;;;;;;;;4323773;33;20332;-52
2021/03/09 10:49:37;;;;;;;43.60;25.00;;;;;;;;;;4320370;33;20230;-52
2021/03/09 10:52:05;;;;;;;46.83;29.23;;;;;;;;;;4324423;33;20768;-52
2021/03/09 10:54:32;;;;;;;48.57;31.37;;;;;;;;;;4316890;33;20306;-54
2021/03/09 10:56:57;;;;;;;69.77;37.70;;;;;;;;;;4323367;33;20638;-52
2021/03/09 10:59:24;;;;;;;65.80;39.60;;;;;;;;;;4322968;33;20261;-53
2021/03/09 11:01:49;;;;;;;84.67;50.03;;;;;;;;;;4325183;33;20839;-54
2021/03/09 11:04:15;;;;;;;84.33;49.73;;;;;;;;;;4320041;33;20287;-53
2021/03/09 11:06:40;;;;;;;55.00;29.97;;;;;;;;;;4349834;32;20708;-53
2021/03/09 11:09:06;;;;;;;59.03;33.03;;;;;;;;;;4323647;33;20234;-52
2021/03/09 11:11:32;;;;;;;53.33;28.47;;;;;;;;;;4325012;33;20279;-52
2021/03/09 11:13:57;;;;;;;44.23;27.57;;;;;;;;;;4323538;33;20253;-53
2021/03/09 11:16:22;;;;;;;50.10;26.57;;;;;;;;;;4325777;33;20227;-52
2021/03/09 11:18:48;;;;;;;41.37;24.30;;;;;;;;;;4321257;33;20652;-53
2021/03/09 11:21:13;;;;;;;37.90;23.00;;;;;;;;;;4323046;33;20443;-53
2021/03/09 11:23:39;;;;;;;47.33;25.23;;;;;;;;;;4321425;33;20371;-52
2021/03/09 11:26:08;;;;;;;42.30;25.47;;;;;;;;;;4350587;32;20294;-52
2021/03/09 11:28:34;;;;;;;43.10;23.77;;;;;;;;;;4346965;33;20327;-53
2021/03/09 11:31:00;;;;;;;66.23;36.00;;;;;;;;;;4324405;33;20546;-54
2021/03/09 11:33:26;;;;;;;59.50;32.80;;;;;;;;;;4323963;33;20298;-53
2021/03/09 11:35:52;;;;;;;62.53;30.37;;;;;;;;;;4320723;33;20309;-59
2021/03/09 11:38:17;;;;;;;58.13;34.67;;;;;;;;;;4321657;33;20266;-61
2021/03/09 11:40:43;;;;;;;63.13;28.33;;;;;;;;;;4323660;33;20292;-61
2021/03/09 11:43:09;;;;;;;33.17;19.23;;;;;;;;;;4346527;33;20234;-62
2021/03/09 11:45:34;;;;;;;27.50;16.47;;;;;;;;;;4321266;33;20429;-60
2021/03/09 11:48:00;;;;;;;32.73;18.60;;;;;;;;;;4324892;33;20306;-60
2021/03/09 11:50:26;;;;;;;31.73;20.30;;;;;;;;;;4346921;32;20278;-61
2021/03/09 11:52:51;;;;;;;41.97;27.10;;;;;;;;;;4328505;33;20212;-60
2021/03/09 11:55:17;;;;;;;66.57;34.43;;;;;;;;;;4321672;33;20235;-62
2021/03/09 11:57:42;;;;;;;49.87;26.20;;;;;;;;;;4326446;33;20285;-62
2021/03/09 12:00:08;;;;;;;43.27;22.93;;;;;;;;;;4322919;33;20294;-61
2021/03/09 12:02:34;;;;;;;42.83;23.43;;;;;;;;;;4345068;32;20740;-62
2021/03/09 12:05:00;;;;;;;41.83;22.07;;;;;;;;;;4322848;33;20372;-61
2021/03/09 12:07:25;;;;;;;32.30;18.50;;;;;;;;;;4344640;33;20254;-60
2021/03/09 12:09:51;;;;;;;29.70;17.20;;;;;;;;;;4318413;33;20361;-61
2021/03/09 12:12:16;;;;;;;41.10;22.23;;;;;;;;;;4318881;33;20236;-60
2021/03/09 12:14:42;;;;;;;30.27;19.10;;;;;;;;;;4324091;33;20285;-60
2021/03/09 12:17:07;;;;;;;29.50;15.87;;;;;;;;;;4324738;33;20282;-60
2021/03/09 12:19:33;;;;;;;24.93;15.70;;;;;;;;;;4325713;33;20207;-60
2021/03/09 12:21:58;;;;;;;27.87;19.10;;;;;;;;;;4323900;33;20328;-60
2021/03/09 12:24:24;;;;;;;27.97;14.33;;;;;;;;;;4324875;33;20309;-61
2021/03/09 12:26:49;;;;;;;25.80;12.73;;;;;;;;;;4327375;33;20351;-61
2021/03/09 12:29:15;;;;;;;27.97;15.80;;;;;;;;;;4326455;33;20637;-62
2021/03/09 12:31:40;;;;;;;19.33;13.30;;;;;;;;;;4323469;33;20231;-61
2021/03/09 12:34:06;;;;;;;21.97;12.80;;;;;;;;;;4319366;33;20642;-64
2021/03/09 12:36:31;;;;;;;32.47;13.50;;;;;;;;;;4323955;33;20466;-64
2021/03/09 12:38:57;;;;;;;19.93;12.57;;;;;;;;;;4319760;33;20241;-63
2021/03/09 12:41:23;;;;;;;18.13;11.40;;;;;;;;;;4331335;33;20265;-61
2021/03/09 12:43:49;;;;;;;20.40;13.30;;;;;;;;;;4324729;33;20267;-60
2021/03/09 12:46:14;;;;;;;21.43;12.60;;;;;;;;;;4321345;33;20219;-61
2021/03/09 12:48:40;;;;;;;13.83;9.43;;;;;;;;;;4328379;33;20219;-62
2021/03/09 12:51:06;;;;;;;13.67;8.57;;;;;;;;;;4326083;33;20318;-62
2021/03/09 12:53:31;;;;;;;15.27;10.13;;;;;;;;;;4333788;33;20256;-62
2021/03/09 12:55:57;;;;;;;16.30;10.30;;;;;;;;;;4323127;33;20338;-63
2021/03/09 12:58:23;;;;;;;30.03;11.93;;;;;;;;;;4332423;32;20338;-63
2021/03/09 13:00:48;;;;;;;19.87;10.73;;;;;;;;;;4312672;33;20356;-63
2021/03/09 13:03:14;;;;;;;19.57;10.00;;;;;;;;;;4324858;33;20345;-62
2021/03/09 13:05:40;;;;;;;20.33;10.13;;;;;;;;;;4325550;33;20345;-63
2021/03/09 13:08:05;;;;;;;15.67;7.70;;;;;;;;;;4324346;33;20298;-61
2021/03/09 13:10:31;;;;;;;18.77;9.77;;;;;;;;;;4350469;32;20571;-61
2021/03/09 13:12:56;;;;;;;11.23;7.17;;;;;;;;;;4317926;33;20380;-59
2021/03/09 13:15:22;;;;;;;20.60;11.10;;;;;;;;;;4322719;33;20376;-59
2021/03/09 13:17:48;;;;;;;20.63;11.20;;;;;;;;;;4323816;33;20215;-59
2021/03/09 13:20:15;;;;;;;24.20;11.73;;;;;;;;;;4345367;32;20293;-58
2021/03/09 13:22:41;;;;;;;12.67;7.07;;;;;;;;;;4321732;33;20247;-59
2021/03/09 13:25:09;;;;;;;10.20;6.30;;;;;;;;;;4324832;33;20246;-60
2021/03/09 13:27:35;;;;;;;12.13;7.53;;;;;;;;;;4321672;33;20798;-61
2021/03/09 13:30:04;;;;;;;13.07;7.77;;;;;;;;;;4323711;33;20223;-58
2021/03/09 13:32:29;;;;;;;11.93;7.60;;;;;;;;;;4323190;33;20917;-59
2021/03/09 13:34:55;;;;;;;17.70;11.37;;;;;;;;;;4320858;33;20323;-57
2021/03/09 13:37:20;;;;;;;20.50;12.30;;;;;;;;;;4321862;33;20367;-57
2021/03/09 13:39:46;;;;;;;15.13;10.33;;;;;;;;;;4324348;33;20693;-58
2021/03/09 13:42:11;;;;;;;23.67;14.60;;;;;;;;;;4321457;33;20803;-61
2021/03/09 13:44:37;;;;;;;22.47;13.27;;;;;;;;;;4347540;32;20235;-61
2021/03/09 13:47:03;;;;;;;28.07;14.47;;;;;;;;;;4327639;33;20732;-60
2021/03/09 13:49:28;;;;;;;22.50;13.77;;;;;;;;;;4321552;33;20333;-60
2021/03/09 13:51:54;;;;;;;26.43;14.17;;;;;;;;;;4325388;33;20337;-60
2021/03/09 13:54:19;;;;;;;27.03;14.67;;;;;;;;;;4322916;33;20747;-60
2021/03/09 13:56:45;;;;;;;31.80;17.83;;;;;;;;;;4325771;33;20674;-60
2021/03/09 13:59:10;;;;;;;34.53;17.10;;;;;;;;;;4324197;33;20313;-61
2021/03/09 14:01:36;;;;;;;41.90;16.43;;;;;;;;;;4325139;33;20329;-62
2021/03/09 14:04:03;;;;;;;27.13;8.60;;;;;;;;;;4320246;33;20689;-66
2021/03/09 14:06:29;;;;;;;18.43;12.33;;;;;;;;;;4325679;33;20360;-63
2021/03/09 14:08:54;;;;;;;25.73;13.33;;;;;;;;;;4324992;33;20382;-62
2021/03/09 14:11:20;;;;;;;18.67;9.83;;;;;;;;;;4326266;33;20306;-62
2021/03/09 14:13:45;;;;;;;21.33;12.10;;;;;;;;;;4325744;33;20317;-62
2021/03/09 14:16:11;;;;;;;21.23;10.77;;;;;;;;;;4325753;33;20273;-61
2021/03/09 14:18:37;;;;;;;19.73;9.17;;;;;;;;;;4325532;33;20285;-62
2021/03/09 14:21:02;;;;;;;15.47;7.80;;;;;;;;;;4325042;33;20338;-63
2021/03/09 14:23:28;;;;;;;22.33;9.67;;;;;;;;;;4327040;33;20215;-61
2021/03/09 14:25:55;;;;;;;22.87;11.27;;;;;;;;;;4322180;33;20657;-61
2021/03/09 14:28:20;;;;;;;16.93;8.77;;;;;;;;;;4327115;33;20234;-61